createdAt,value
2018-11-03T00:00:14.611Z,84.10
2018-11-03T00:02:44.596Z,84.40
2018-11-03T00:05:14.234Z,84.40
2018-11-03T00:07:43.432Z,84.20
2018-11-03T00:10:12.401Z,84.60
2018-11-03T00:12:41.594Z,84.60
2018-11-03T00:15:11.141Z,84.60
2018-11-03T00:17:40.295Z,84.60
2018-11-03T00:20:09.273Z,84.70
2018-11-03T00:22:38.436Z,84.80
2018-11-03T00:25:08.120Z,84.90
2018-11-03T00:27:37.388Z,85.10
2018-11-03T00:30:08.272Z,85.00
2018-11-03T00:32:37.341Z,85.20
2018-11-03T00:35:06.622Z,85.40
2018-11-03T00:37:35.602Z,85.40
2018-11-03T00:40:05.622Z,85.60
2018-11-03T00:42:34.665Z,85.60
2018-11-03T00:45:03.713Z,85.60
2018-11-03T00:47:32.874Z,85.50
2018-11-03T00:50:02.028Z,85.40
2018-11-03T00:52:30.952Z,85.30
2018-11-03T00:55:00.354Z,85.40
2018-11-03T00:57:29.622Z,85.30
2018-11-03T00:59:58.562Z,85.10
2018-11-03T01:02:27.549Z,85.00
2018-11-03T01:04:56.826Z,85.00
2018-11-03T01:07:25.820Z,85.00
2018-11-03T01:09:54.814Z,85.00
2018-11-03T01:12:23.788Z,85.00
2018-11-03T01:14:52.734Z,84.90
2018-11-03T01:17:21.659Z,85.00
2018-11-03T01:19:50.772Z,84.80
2018-11-03T01:22:19.729Z,84.90
2018-11-03T01:24:48.675Z,85.00
2018-11-03T01:27:17.641Z,85.00
2018-11-03T01:29:47.136Z,85.00
2018-11-03T01:32:16.142Z,85.20
2018-11-03T01:34:45.326Z,85.50
2018-11-03T01:37:14.271Z,85.40
2018-11-03T01:39:43.486Z,85.40
2018-11-03T01:42:12.419Z,85.50
2018-11-03T01:44:41.380Z,85.60
2018-11-03T01:47:10.522Z,85.70
2018-11-03T01:49:39.688Z,85.70
2018-11-03T01:52:08.817Z,85.60
2018-11-03T01:54:38.087Z,85.50
2018-11-03T01:57:07.444Z,85.50
2018-11-03T01:59:36.377Z,85.50
2018-11-03T02:02:05.750Z,85.70
2018-11-03T02:04:34.703Z,86.00
2018-11-03T02:07:03.984Z,85.90
2018-11-03T02:09:32.882Z,86.00
2018-11-03T02:12:01.742Z,86.10
2018-11-03T02:14:34.465Z,86.30
2018-11-03T02:17:03.904Z,86.30
2018-11-03T02:19:32.897Z,86.30
2018-11-03T02:22:01.851Z,86.40
2018-11-03T02:24:30.772Z,86.50
2018-11-03T02:26:59.949Z,86.70
2018-11-03T02:29:29.114Z,86.70
2018-11-03T02:31:58.100Z,86.80
2018-11-03T02:34:27.571Z,86.70
2018-11-03T02:36:56.704Z,86.20
2018-11-03T02:39:25.864Z,86.70
2018-11-03T02:41:54.793Z,86.70
2018-11-03T02:44:23.750Z,86.90
2018-11-03T02:46:52.879Z,87.20
2018-11-03T02:49:21.830Z,87.40
2018-11-03T02:51:50.969Z,88.30
2018-11-03T02:54:20.120Z,87.70
2018-11-03T02:56:49.057Z,87.90
2018-11-03T02:59:18.179Z,87.90
2018-11-03T03:01:47.899Z,88.00
2018-11-03T03:04:16.984Z,88.00
2018-11-03T03:06:46.564Z,88.30
2018-11-03T03:09:15.498Z,88.70
2018-11-03T03:11:44.428Z,88.50
2018-11-03T03:14:13.634Z,88.80
2018-11-03T03:16:42.567Z,88.80
2018-11-03T03:19:11.535Z,88.70
2018-11-03T03:21:40.630Z,88.60
2018-11-03T03:24:09.750Z,88.80
2018-11-03T03:26:38.910Z,89.00
2018-11-03T03:29:08.067Z,89.00
2018-11-03T03:31:37.156Z,89.10
2018-11-03T03:34:06.520Z,89.00
2018-11-03T03:36:35.450Z,89.00
2018-11-03T03:39:06.706Z,89.10
2018-11-03T03:41:35.821Z,89.00
2018-11-03T03:44:05.185Z,89.00
2018-11-03T03:46:34.327Z,89.10
2018-11-03T03:49:03.261Z,89.10
2018-11-03T03:51:32.170Z,89.20
2018-11-03T03:54:01.284Z,89.20
2018-11-03T03:56:30.209Z,89.20
2018-11-03T03:58:59.141Z,89.20
2018-11-03T04:01:28.257Z,89.00
2018-11-03T04:03:57.204Z,88.90
2018-11-03T04:06:26.155Z,88.90
2018-11-03T04:08:55.293Z,88.70
2018-11-03T04:11:24.221Z,88.80
2018-11-03T04:13:53.154Z,88.70
2018-11-03T04:16:22.208Z,88.50
2018-11-03T04:18:51.303Z,88.50
2018-11-03T04:21:27.560Z,88.40
2018-11-03T04:23:57.510Z,88.40
2018-11-03T04:26:28.199Z,89.40
2018-11-03T04:28:57.605Z,88.70
2018-11-03T04:31:27.043Z,88.70
2018-11-03T04:33:56.290Z,89.00
2018-11-03T04:36:25.457Z,89.20
2018-11-03T04:38:54.424Z,89.60
2018-11-03T04:41:23.586Z,89.50
2018-11-03T04:43:52.540Z,89.50
2018-11-03T04:46:21.496Z,89.50
2018-11-03T04:48:54.272Z,89.50
2018-11-03T04:51:23.211Z,89.60
2018-11-03T04:53:52.385Z,90.00
2018-11-03T04:56:21.346Z,90.00
2018-11-03T04:58:50.460Z,90.10
2018-11-03T05:01:19.400Z,90.10
2018-11-03T05:03:48.372Z,90.10
2018-11-03T05:06:17.408Z,90.10
2018-11-03T05:08:46.616Z,90.20
2018-11-03T05:11:15.868Z,90.20
2018-11-03T05:13:44.751Z,90.20
2018-11-03T05:16:13.673Z,90.20
2018-11-03T05:18:42.602Z,90.10
2018-11-03T05:21:11.688Z,90.20
2018-11-03T05:23:40.811Z,90.20
2018-11-03T05:26:09.978Z,90.20
2018-11-03T05:28:39.162Z,90.30
2018-11-03T05:31:08.299Z,90.20
2018-11-03T05:33:37.359Z,90.20
2018-11-03T05:36:06.320Z,90.20
2018-11-03T05:38:35.457Z,90.10
2018-11-03T05:41:05.373Z,90.10
2018-11-03T05:43:34.578Z,90.10
2018-11-03T05:46:04.109Z,90.10
2018-11-03T05:48:33.256Z,90.10
2018-11-03T05:51:02.219Z,90.10
2018-11-03T05:53:31.183Z,90.10
2018-11-03T05:56:00.181Z,90.00
2018-11-03T05:58:29.132Z,90.00
2018-11-03T06:00:58.167Z,90.00
2018-11-03T06:03:27.678Z,90.10
2018-11-03T06:05:56.929Z,90.00
2018-11-03T06:08:26.095Z,90.20
2018-11-03T06:10:55.051Z,89.70
2018-11-03T06:13:24.010Z,89.80
2018-11-03T06:15:52.960Z,90.00
2018-11-03T06:18:22.786Z,90.00
2018-11-03T06:20:51.690Z,90.00
2018-11-03T06:23:20.685Z,90.00
2018-11-03T06:25:49.749Z,90.00
2018-11-03T06:28:19.181Z,90.00
2018-11-03T06:30:48.274Z,89.90
2018-11-03T06:33:17.420Z,89.90
2018-11-03T06:35:46.544Z,89.90
2018-11-03T06:38:17.227Z,89.80
2018-11-03T06:40:46.413Z,89.70
2018-11-03T06:43:15.374Z,89.50
2018-11-03T06:45:44.301Z,89.70
2018-11-03T06:48:13.510Z,89.90
2018-11-03T06:50:42.637Z,90.00
2018-11-03T06:53:11.789Z,89.80
2018-11-03T06:55:40.940Z,89.60
2018-11-03T06:58:09.998Z,89.40
2018-11-03T07:00:38.988Z,89.30
2018-11-03T07:03:08.027Z,89.20
2018-11-03T07:05:37.018Z,89.20
2018-11-03T07:08:06.362Z,89.40
2018-11-03T07:10:35.509Z,89.00
2018-11-03T07:13:05.101Z,88.90
2018-11-03T07:15:34.204Z,88.90
2018-11-03T07:18:03.289Z,88.90
2018-11-03T07:20:32.268Z,88.40
2018-11-03T07:23:01.379Z,88.20
2018-11-03T07:25:30.572Z,88.40
2018-11-03T07:27:59.507Z,88.30
2018-11-03T07:30:28.489Z,88.00
2018-11-03T07:32:57.491Z,87.90
2018-11-03T07:35:26.660Z,87.70
2018-11-03T07:37:55.584Z,87.50
2018-11-03T07:40:24.537Z,87.20
2018-11-03T07:42:53.484Z,87.00
2018-11-03T07:45:22.455Z,87.20
2018-11-03T07:47:51.553Z,86.80
2018-11-03T07:50:20.733Z,86.40
2018-11-03T07:52:49.680Z,86.00
2018-11-03T07:55:18.631Z,86.40
2018-11-03T07:57:47.804Z,86.00
2018-11-03T08:00:17.090Z,85.80
2018-11-03T08:02:46.270Z,85.30
2018-11-03T08:05:15.378Z,85.00
2018-11-03T08:07:44.321Z,84.50
2018-11-03T08:10:13.290Z,85.30
2018-11-03T08:12:42.254Z,84.80
2018-11-03T08:15:12.075Z,84.50
2018-11-03T08:17:41.337Z,84.20
2018-11-03T08:20:11.254Z,84.60
2018-11-03T08:22:40.401Z,83.80
2018-11-03T08:25:09.967Z,83.30
2018-11-03T08:27:39.123Z,83.30
2018-11-03T08:30:10.515Z,83.50
2018-11-03T08:32:39.627Z,83.80
2018-11-03T08:35:10.135Z,84.20
2018-11-03T08:37:39.671Z,84.10
2018-11-03T08:40:11.163Z,83.80
2018-11-03T08:42:41.484Z,83.90
2018-11-03T08:45:11.677Z,83.80
2018-11-03T08:47:41.361Z,83.90
2018-11-03T08:50:11.877Z,83.50
2018-11-03T08:52:41.603Z,82.80
2018-11-03T08:55:11.901Z,83.00
2018-11-03T08:57:41.309Z,82.80
2018-11-03T09:00:13.040Z,82.40
2018-11-03T09:02:42.585Z,82.00
2018-11-03T09:05:13.336Z,81.80
2018-11-03T09:07:42.695Z,81.30
2018-11-03T09:10:13.394Z,81.40
2018-11-03T09:12:43.184Z,81.10
2018-11-03T09:15:14.159Z,81.60
2018-11-03T09:17:44.641Z,81.70
2018-11-03T09:20:14.425Z,81.80
2018-11-03T09:22:43.619Z,81.30
2018-11-03T09:25:13.956Z,81.70
2018-11-03T09:27:44.197Z,81.40
2018-11-03T09:30:15.635Z,80.60
2018-11-03T09:32:44.608Z,80.90
2018-11-03T09:35:14.570Z,80.80
2018-11-03T09:37:43.501Z,80.60
2018-11-03T09:40:15.421Z,81.10
2018-11-03T09:42:45.521Z,80.80
2018-11-03T09:45:15.028Z,80.60
2018-11-03T09:47:44.622Z,80.80
2018-11-03T09:50:14.832Z,80.50
2018-11-03T09:52:44.217Z,80.60
2018-11-03T09:55:17.648Z,80.30
2018-11-03T09:57:46.705Z,80.30
2018-11-03T10:00:17.478Z,80.10
2018-11-03T10:02:46.972Z,80.20
2018-11-03T10:05:16.495Z,80.20
2018-11-03T10:07:45.717Z,79.80
2018-11-03T10:10:16.018Z,79.30
2018-11-03T10:12:44.968Z,79.50
2018-11-03T10:15:15.415Z,79.60
2018-11-03T10:17:44.927Z,79.50
2018-11-03T10:20:14.247Z,79.10
2018-11-03T10:22:43.364Z,78.90
2018-11-03T10:25:14.873Z,79.10
2018-11-03T10:27:44.389Z,78.70
2018-11-03T10:30:15.213Z,79.00
2018-11-03T10:32:44.428Z,79.00
2018-11-03T10:35:14.020Z,79.00
2018-11-03T10:37:43.235Z,79.20
2018-11-03T10:40:16.103Z,79.00
2018-11-03T10:42:45.485Z,77.90
2018-11-03T10:45:15.506Z,78.10
2018-11-03T10:47:45.028Z,78.30
2018-11-03T10:50:16.905Z,78.10
2018-11-03T10:52:46.526Z,78.10
2018-11-03T10:55:17.024Z,77.90
2018-11-03T10:57:46.454Z,78.20
2018-11-03T11:00:22.686Z,78.30
2018-11-03T11:02:57.413Z,78.00
2018-11-03T11:05:31.986Z,77.50
2018-11-03T11:08:06.384Z,77.50
2018-11-03T11:10:40.899Z,76.50
2018-11-03T11:13:15.067Z,76.80
2018-11-03T11:15:44.481Z,76.70
2018-11-03T11:18:13.590Z,76.70
2018-11-03T11:20:42.932Z,76.40
2018-11-03T11:23:12.024Z,76.40
2018-11-03T11:25:41.175Z,75.20
2018-11-03T11:28:10.326Z,75.40
2018-11-03T11:30:41.078Z,76.00
2018-11-03T11:33:11.811Z,75.30
2018-11-03T11:35:41.170Z,75.80
2018-11-03T11:38:10.860Z,75.60
2018-11-03T11:40:40.474Z,75.90
2018-11-03T11:43:10.166Z,76.20
2018-11-03T11:45:39.705Z,76.70
2018-11-03T11:48:08.790Z,76.40
2018-11-03T11:50:38.666Z,75.40
2018-11-03T11:53:08.476Z,75.40
2018-11-03T11:55:37.718Z,76.70
2018-11-03T11:58:06.975Z,75.40
2018-11-03T12:00:36.357Z,75.20
2018-11-03T12:03:05.915Z,75.70
2018-11-03T12:05:35.065Z,75.50
2018-11-03T12:08:04.380Z,74.80
2018-11-03T12:10:33.613Z,75.00
2018-11-03T12:13:02.577Z,75.10
2018-11-03T12:15:31.537Z,75.00
2018-11-03T12:18:00.860Z,76.30
2018-11-03T12:20:29.791Z,75.80
2018-11-03T12:22:58.816Z,75.50
2018-11-03T12:25:27.769Z,75.50
2018-11-03T12:27:56.989Z,75.40
2018-11-03T12:30:26.139Z,75.50
2018-11-03T12:32:55.294Z,75.90
2018-11-03T12:35:24.481Z,76.30
2018-11-03T12:37:54.095Z,76.40
2018-11-03T12:40:23.446Z,75.50
2018-11-03T12:42:52.668Z,75.70
2018-11-03T12:45:21.786Z,75.20
2018-11-03T12:47:50.831Z,76.00
2018-11-03T12:50:20.010Z,75.20
2018-11-03T12:52:49.056Z,75.10
2018-11-03T12:55:17.994Z,74.40
2018-11-03T12:57:47.440Z,73.10
2018-11-03T13:00:16.711Z,73.10
2018-11-03T13:02:46.326Z,72.50
2018-11-03T13:05:15.551Z,73.70
2018-11-03T13:07:45.579Z,74.10
2018-11-03T13:10:14.584Z,74.40
2018-11-03T13:12:43.660Z,74.80
2018-11-03T13:15:13.372Z,74.40
2018-11-03T13:17:42.486Z,74.20
2018-11-03T13:20:13.403Z,74.40
2018-11-03T13:22:43.040Z,74.40
2018-11-03T13:25:12.670Z,74.70
2018-11-03T13:27:42.170Z,75.00
2018-11-03T13:30:13.050Z,75.20
2018-11-03T13:32:42.021Z,75.40
2018-11-03T13:35:12.582Z,75.50
2018-11-03T13:37:41.808Z,75.30
2018-11-03T13:40:12.411Z,75.20
2018-11-03T13:42:41.614Z,75.50
2018-11-03T13:45:10.814Z,75.60
2018-11-03T13:47:40.148Z,75.90
2018-11-03T13:50:12.929Z,75.70
2018-11-03T13:52:43.674Z,75.80
2018-11-03T13:55:12.746Z,75.80
2018-11-03T13:57:42.844Z,75.70
2018-11-03T14:00:13.469Z,74.90
2018-11-03T14:02:43.631Z,75.50
2018-11-03T14:05:12.637Z,75.50
2018-11-03T14:07:41.566Z,75.40
2018-11-03T14:10:12.939Z,75.00
2018-11-03T14:12:42.953Z,75.10
2018-11-03T14:15:21.933Z,75.10
2018-11-03T14:17:50.931Z,75.30
2018-11-03T14:20:19.899Z,75.40
2018-11-03T14:22:48.921Z,75.40
2018-11-03T14:25:18.463Z,75.30
2018-11-03T14:27:47.923Z,75.30
2018-11-03T14:30:17.044Z,75.30
2018-11-03T14:32:45.972Z,75.80
2018-11-03T14:35:15.657Z,76.00
2018-11-03T14:37:44.619Z,76.00
2018-11-03T14:40:14.945Z,75.80
2018-11-03T14:42:44.534Z,75.50
2018-11-03T14:45:14.528Z,75.60
2018-11-03T14:47:43.642Z,75.80
2018-11-03T14:50:12.658Z,76.10
2018-11-03T14:52:42.517Z,76.50
2018-11-03T14:55:12.236Z,76.00
2018-11-03T14:57:41.214Z,76.60
2018-11-03T15:00:12.879Z,76.60
2018-11-03T15:02:41.983Z,76.80
2018-11-03T15:05:11.617Z,76.80
2018-11-03T15:07:40.570Z,76.80
2018-11-03T15:10:10.445Z,76.80
2018-11-03T15:12:40.020Z,76.70
2018-11-03T15:15:11.122Z,76.80
2018-11-03T15:17:40.053Z,77.10
2018-11-03T15:20:10.153Z,77.40
2018-11-03T15:22:39.264Z,77.50
2018-11-03T15:25:08.708Z,77.80
2018-11-03T15:27:37.828Z,77.80
2018-11-03T15:30:08.346Z,78.00
2018-11-03T15:32:37.766Z,78.10
2018-11-03T15:35:07.450Z,78.40
2018-11-03T15:37:37.185Z,78.60
2018-11-03T15:40:08.301Z,78.80
2018-11-03T15:42:37.560Z,79.10
2018-11-03T15:45:08.552Z,79.40
2018-11-03T15:47:37.987Z,79.50
2018-11-03T15:50:07.835Z,79.80
2018-11-03T15:52:36.744Z,80.10
2018-11-03T15:55:06.445Z,80.40
2018-11-03T15:57:35.629Z,80.70
2018-11-03T16:00:06.319Z,80.90
2018-11-03T16:02:35.254Z,81.20
2018-11-03T16:05:04.329Z,81.20
2018-11-03T16:07:33.463Z,81.50
2018-11-03T16:10:02.445Z,81.90
2018-11-03T16:12:31.474Z,82.60
2018-11-03T16:15:00.707Z,81.90
2018-11-03T16:17:29.739Z,81.90
2018-11-03T16:19:58.727Z,82.00
2018-11-03T16:22:27.771Z,82.00
2018-11-03T16:24:57.115Z,82.20
2018-11-03T16:27:26.113Z,82.20
2018-11-03T16:29:55.107Z,82.10
2018-11-03T16:32:24.411Z,82.10
2018-11-03T16:34:53.409Z,82.10
2018-11-03T16:37:22.416Z,82.00
2018-11-03T16:39:51.384Z,82.00
2018-11-03T16:42:20.375Z,82.10
2018-11-03T16:44:49.322Z,82.20
2018-11-03T16:47:18.374Z,82.40
2018-11-03T16:49:47.345Z,82.50
2018-11-03T16:52:16.416Z,82.80
2018-11-03T16:54:45.436Z,82.90
2018-11-03T16:57:14.472Z,83.20
2018-11-03T16:59:43.517Z,83.30
2018-11-03T17:02:12.635Z,83.30
2018-11-03T17:04:41.599Z,83.40
2018-11-03T17:07:10.651Z,83.40
2018-11-03T17:09:39.723Z,83.40
2018-11-03T17:12:08.708Z,83.50
2018-11-03T17:14:37.980Z,83.50
2018-11-03T17:17:06.939Z,84.40
2018-11-03T17:19:36.038Z,83.80
2018-11-03T17:22:05.088Z,83.90
2018-11-03T17:24:34.144Z,84.00
2018-11-03T17:27:03.205Z,84.20
2018-11-03T17:29:32.226Z,84.30
2018-11-03T17:32:01.228Z,84.60
2018-11-03T17:34:30.217Z,84.60
2018-11-03T17:36:59.190Z,84.70
2018-11-03T17:39:28.297Z,84.80
2018-11-03T17:41:57.328Z,85.00
2018-11-03T17:44:26.276Z,85.20
2018-11-03T17:46:55.262Z,85.40
2018-11-03T17:49:24.210Z,85.50
2018-11-03T17:51:53.190Z,85.50
2018-11-03T17:54:22.288Z,85.90
2018-11-03T17:56:52.346Z,85.90
2018-11-03T17:59:21.320Z,86.00
2018-11-03T18:01:50.313Z,86.20
2018-11-03T18:04:19.306Z,86.20
2018-11-03T18:06:48.528Z,86.40
2018-11-03T18:09:17.479Z,86.30
2018-11-03T18:11:46.470Z,86.50
2018-11-03T18:14:15.456Z,86.50
2018-11-03T18:16:44.430Z,86.50
2018-11-03T18:19:13.494Z,86.40
2018-11-03T18:21:42.496Z,86.20
2018-11-03T18:24:11.571Z,86.10
2018-11-03T18:26:40.603Z,85.90
2018-11-03T18:29:09.853Z,85.70
2018-11-03T18:31:38.989Z,85.50
2018-11-03T18:34:07.992Z,85.40
2018-11-03T18:36:37.257Z,85.20
2018-11-03T18:39:07.805Z,85.10
2018-11-03T18:41:37.229Z,85.00
2018-11-03T18:44:06.457Z,84.90
2018-11-03T18:46:35.514Z,84.70
2018-11-03T18:49:04.721Z,84.70
2018-11-03T18:51:33.693Z,85.50
2018-11-03T18:54:03.034Z,84.40
2018-11-03T18:56:31.991Z,84.40
2018-11-03T18:59:01.554Z,84.30
2018-11-03T19:01:30.676Z,84.40
2018-11-03T19:03:59.726Z,84.20
2018-11-03T19:06:28.705Z,84.40
2018-11-03T19:08:58.061Z,84.40
2018-11-03T19:11:27.070Z,84.30
2018-11-03T19:13:56.552Z,84.20
2018-11-03T19:16:25.756Z,84.10
2018-11-03T19:18:55.137Z,84.20
2018-11-03T19:21:24.444Z,84.10
2018-11-03T19:23:53.762Z,84.10
2018-11-03T19:26:23.147Z,84.10
2018-11-03T19:28:52.547Z,84.30
2018-11-03T19:31:21.849Z,84.50
2018-11-03T19:33:51.429Z,84.40
2018-11-03T19:36:20.748Z,84.30
2018-11-03T19:38:50.064Z,84.40
2018-11-03T19:41:19.461Z,84.40
2018-11-03T19:43:48.811Z,84.50
2018-11-03T19:46:18.157Z,84.50
2018-11-03T19:48:47.876Z,84.80
2018-11-03T19:51:17.272Z,84.60
2018-11-03T19:53:46.776Z,84.60
2018-11-03T19:56:16.074Z,84.70
2018-11-03T19:58:45.122Z,84.80
2018-11-03T20:01:14.157Z,84.90
2018-11-03T20:03:43.110Z,85.00
2018-11-03T20:06:12.205Z,85.10
2018-11-03T20:08:41.189Z,85.20
2018-11-03T20:11:10.190Z,85.50
2018-11-03T20:13:39.237Z,85.50
2018-11-03T20:16:08.206Z,85.50
2018-11-03T20:18:37.123Z,85.60
2018-11-03T20:21:06.705Z,85.30
2018-11-03T20:23:35.757Z,85.10
2018-11-03T20:26:04.920Z,85.30
2018-11-03T20:28:34.069Z,85.50
2018-11-03T20:31:03.234Z,85.60
2018-11-03T20:33:32.311Z,85.70
2018-11-03T20:36:01.245Z,85.70
2018-11-03T20:38:30.231Z,86.00
2018-11-03T20:40:59.212Z,86.40
2018-11-03T20:43:28.296Z,86.60
2018-11-03T20:45:57.712Z,86.50
2018-11-03T20:48:27.001Z,86.50
2018-11-03T20:51:01.247Z,86.40
2018-11-03T20:53:30.441Z,86.60
2018-11-03T20:55:59.595Z,86.60
2018-11-03T20:58:28.539Z,86.80
2018-11-03T21:00:57.532Z,86.90
2018-11-03T21:03:26.450Z,87.00
2018-11-03T21:05:55.500Z,87.00
2018-11-03T21:08:24.550Z,87.10
2018-11-03T21:10:53.622Z,87.00
2018-11-03T21:13:22.654Z,86.90
2018-11-03T21:15:51.744Z,87.00
2018-11-03T21:18:21.018Z,87.10
2018-11-03T21:20:49.945Z,87.00
2018-11-03T21:23:18.865Z,87.00
2018-11-03T21:25:47.982Z,87.00
2018-11-03T21:28:16.965Z,87.00
2018-11-03T21:30:45.920Z,87.10
2018-11-03T21:33:15.155Z,87.00
2018-11-03T21:35:44.106Z,87.00
2018-11-03T21:38:13.093Z,87.10
2018-11-03T21:40:42.216Z,87.10
2018-11-03T21:43:11.177Z,87.10
2018-11-03T21:45:40.122Z,87.30
2018-11-03T21:48:09.020Z,87.60
2018-11-03T21:50:37.960Z,87.80
2018-11-03T21:53:07.234Z,88.80
2018-11-03T21:55:36.176Z,88.10
2018-11-03T21:58:05.342Z,88.00
2018-11-03T22:00:34.274Z,87.80
2018-11-03T22:03:03.677Z,88.30
2018-11-03T22:05:32.736Z,88.20
2018-11-03T22:08:01.687Z,88.30
2018-11-03T22:10:30.641Z,88.20
2018-11-03T22:12:59.885Z,88.40
2018-11-03T22:15:28.880Z,88.50
2018-11-03T22:17:57.822Z,88.50
2018-11-03T22:20:26.779Z,88.30
2018-11-03T22:22:55.784Z,88.20
2018-11-03T22:25:24.723Z,88.10
2018-11-03T22:27:53.733Z,88.20
2018-11-03T22:30:22.885Z,88.30
2018-11-03T22:32:51.819Z,88.30
2018-11-03T22:35:20.763Z,88.30
2018-11-03T22:37:49.739Z,88.50
2018-11-03T22:40:18.671Z,88.50
2018-11-03T22:42:47.671Z,88.60
2018-11-03T22:45:16.591Z,88.50
2018-11-03T22:47:45.559Z,88.50
2018-11-03T22:50:14.722Z,88.80
2018-11-03T22:52:43.783Z,88.80
2018-11-03T22:55:12.982Z,88.90
2018-11-03T22:57:42.015Z,88.90
2018-11-03T23:00:13.369Z,88.70
2018-11-03T23:02:43.158Z,88.80
2018-11-03T23:05:13.431Z,88.90
2018-11-03T23:07:42.544Z,89.00
2018-11-03T23:10:11.730Z,89.40
2018-11-03T23:12:40.731Z,89.40
2018-11-03T23:15:11.035Z,89.50
2018-11-03T23:17:40.140Z,89.40
2018-11-03T23:20:12.082Z,89.40
2018-11-03T23:22:41.183Z,89.30
2018-11-03T23:25:10.716Z,89.40
2018-11-03T23:27:39.655Z,89.50
2018-11-03T23:30:10.756Z,89.70
2018-11-03T23:32:40.458Z,89.70
2018-11-03T23:35:11.660Z,89.80
2018-11-03T23:37:40.870Z,89.80
2018-11-03T23:40:10.871Z,89.90
2018-11-03T23:42:46.250Z,90.00
2018-11-03T23:45:15.532Z,90.00
2018-11-03T23:47:44.502Z,90.00
2018-11-03T23:50:14.263Z,90.20
2018-11-03T23:52:46.691Z,90.30
2018-11-03T23:55:16.040Z,90.30
2018-11-03T23:57:44.971Z,90.30
